createdAt,value
2023-04-19T00:00:39.085Z,78.31
2023-04-19T00:03:07.828Z,78.48
2023-04-19T00:05:35.623Z,78.27
2023-04-19T00:08:03.294Z,78.67
2023-04-19T00:10:30.801Z,78.63
2023-04-19T00:12:58.407Z,78.43
2023-04-19T00:15:27.603Z,79.06
2023-04-19T00:17:55.325Z,78.76
2023-04-19T00:20:23.079Z,78.62
2023-04-19T00:22:50.655Z,78.85
2023-04-19T00:25:18.174Z,78.59
2023-04-19T00:27:45.815Z,79.00
2023-04-19T00:30:14.168Z,79.47
2023-04-19T00:32:43.109Z,78.74
2023-04-19T00:35:10.991Z,78.70
2023-04-19T00:37:38.617Z,79.12
2023-04-19T00:40:07.345Z,79.03
2023-04-19T00:42:37.519Z,78.91
2023-04-19T00:45:06.797Z,79.04
2023-04-19T00:47:34.763Z,79.71
2023-04-19T00:50:04.454Z,79.60
2023-04-19T00:52:33.871Z,80.14
2023-04-19T00:55:02.895Z,79.71
2023-04-19T00:57:31.105Z,79.53
2023-04-19T00:59:58.877Z,78.88
2023-04-19T01:02:28.398Z,79.59
2023-04-19T01:04:56.310Z,78.89
2023-04-19T01:07:25.504Z,79.34
2023-04-19T01:09:53.100Z,79.35
2023-04-19T01:12:23.047Z,79.86
2023-04-19T01:14:51.288Z,79.37
2023-04-19T01:17:19.699Z,79.53
2023-04-19T01:19:47.553Z,79.70
2023-04-19T01:22:18.165Z,80.06
2023-04-19T01:24:45.681Z,80.00
2023-04-19T01:27:14.069Z,80.26
2023-04-19T01:29:41.683Z,80.08
2023-04-19T01:32:09.294Z,79.82
2023-04-19T01:34:36.962Z,80.90
2023-04-19T01:37:05.322Z,80.25
2023-04-19T01:39:36.000Z,81.25
2023-04-19T01:42:04.244Z,80.86
2023-04-19T01:44:31.849Z,81.40
2023-04-19T01:47:00.885Z,81.41
2023-04-19T01:49:28.486Z,81.42
2023-04-19T01:51:56.086Z,80.78
2023-04-19T01:54:23.673Z,81.11
2023-04-19T01:56:52.712Z,81.39
2023-04-19T01:59:20.805Z,80.68
2023-04-19T02:01:48.433Z,81.14
2023-04-19T02:04:16.240Z,80.79
2023-04-19T02:06:43.987Z,80.58
2023-04-19T02:09:11.523Z,81.06
2023-04-19T02:11:42.435Z,80.69
2023-04-19T02:14:11.573Z,81.10
2023-04-19T02:16:39.144Z,80.40
2023-04-19T02:19:07.763Z,81.16
2023-04-19T02:21:35.398Z,80.97
2023-04-19T02:24:02.985Z,81.72
2023-04-19T02:26:30.587Z,81.54
2023-04-19T02:28:58.251Z,81.47
2023-04-19T02:31:27.228Z,82.03
2023-04-19T02:33:54.880Z,81.43
2023-04-19T02:36:22.503Z,81.22
2023-04-19T02:38:50.187Z,81.33
2023-04-19T02:41:17.984Z,81.58
2023-04-19T02:43:45.638Z,81.46
2023-04-19T02:46:14.056Z,81.26
2023-04-19T02:48:43.111Z,81.13
2023-04-19T02:51:16.341Z,81.38
2023-04-19T02:53:44.074Z,81.61
2023-04-19T02:56:11.701Z,81.39
2023-04-19T02:58:39.286Z,81.60
2023-04-19T03:01:07.707Z,81.26
2023-04-19T03:03:35.491Z,80.91
2023-04-19T03:06:04.950Z,81.58
2023-04-19T03:08:33.876Z,81.50
2023-04-19T03:11:01.546Z,81.80
2023-04-19T03:13:31.487Z,81.56
2023-04-19T03:15:59.104Z,82.00
2023-04-19T03:18:28.212Z,82.51
2023-04-19T03:20:58.189Z,82.18
2023-04-19T03:23:30.982Z,82.44
2023-04-19T03:26:01.066Z,81.82
2023-04-19T03:28:38.698Z,81.79
2023-04-19T03:31:17.385Z,82.12
2023-04-19T03:33:46.145Z,82.07
2023-04-19T03:36:14.445Z,81.94
2023-04-19T03:38:45.689Z,81.36
2023-04-19T03:41:22.018Z,81.83
2023-04-19T03:43:54.717Z,81.29
2023-04-19T03:46:25.621Z,81.46
2023-04-19T03:48:53.931Z,81.91
2023-04-19T03:51:22.237Z,82.34
2023-04-19T03:53:51.172Z,82.46
2023-04-19T03:56:20.452Z,82.23
2023-04-19T03:58:51.656Z,81.84
2023-04-19T04:01:20.566Z,82.11
2023-04-19T04:03:48.965Z,82.50
2023-04-19T04:06:18.515Z,82.51
2023-04-19T04:08:46.785Z,82.19
2023-04-19T04:11:15.914Z,82.64
2023-04-19T04:13:48.784Z,82.73
2023-04-19T04:16:20.056Z,82.81
2023-04-19T04:18:48.802Z,82.68
2023-04-19T04:21:16.806Z,82.48
2023-04-19T04:23:47.367Z,82.80
2023-04-19T04:26:25.284Z,82.39
2023-04-19T04:29:00.445Z,82.04
2023-04-19T04:31:28.279Z,81.76
2023-04-19T04:33:56.802Z,82.09
2023-04-19T04:36:26.166Z,82.27
2023-04-19T04:38:55.373Z,81.70
2023-04-19T04:41:25.201Z,81.89
2023-04-19T04:44:08.286Z,82.21
2023-04-19T04:46:39.919Z,82.45
2023-04-19T04:49:08.529Z,81.29
2023-04-19T04:51:37.204Z,81.87
2023-04-19T04:54:06.072Z,81.52
2023-04-19T04:56:36.815Z,82.26
2023-04-19T04:59:04.475Z,82.11
2023-04-19T05:01:35.944Z,81.40
2023-04-19T05:04:03.652Z,81.72
2023-04-19T05:06:31.762Z,81.57
2023-04-19T05:09:00.978Z,80.91
2023-04-19T05:11:34.382Z,81.06
2023-04-19T05:14:04.100Z,81.06
2023-04-19T05:16:33.631Z,80.83
2023-04-19T05:19:01.830Z,86.64
2023-04-19T05:21:34.562Z,82.47
2023-04-19T05:24:04.575Z,80.52
2023-04-19T05:26:34.343Z,80.24
2023-04-19T05:29:04.271Z,80.39
2023-04-19T05:31:53.124Z,79.61
2023-04-19T05:34:28.034Z,78.96
2023-04-19T05:36:57.494Z,78.59
2023-04-19T05:39:25.105Z,79.76
2023-04-19T05:41:52.860Z,79.60
2023-04-19T05:44:21.754Z,79.10
2023-04-19T05:46:50.051Z,77.98
2023-04-19T05:49:30.416Z,78.50
2023-04-19T05:52:14.470Z,78.27
2023-04-19T05:54:47.242Z,78.51
2023-04-19T05:57:14.999Z,78.06
2023-04-19T05:59:43.940Z,77.31
2023-04-19T06:02:13.814Z,75.83
2023-04-19T06:04:42.283Z,76.96
2023-04-19T06:07:26.758Z,77.33
2023-04-19T06:09:58.498Z,76.40
2023-04-19T06:12:26.221Z,75.94
2023-04-19T06:14:55.570Z,76.01
2023-04-19T06:17:25.366Z,75.56
2023-04-19T06:19:53.768Z,75.24
2023-04-19T06:22:21.556Z,74.86
2023-04-19T06:24:49.277Z,75.75
2023-04-19T06:27:17.802Z,74.91
2023-04-19T06:29:45.474Z,75.73
2023-04-19T06:32:14.376Z,75.38
2023-04-19T06:34:41.927Z,75.46
2023-04-19T06:37:09.469Z,75.45
2023-04-19T06:39:37.247Z,75.53
2023-04-19T06:42:05.514Z,75.84
2023-04-19T06:44:34.376Z,75.09
2023-04-19T06:47:01.947Z,75.89
2023-04-19T06:49:30.932Z,75.39
2023-04-19T06:51:59.436Z,75.16
2023-04-19T06:54:26.969Z,75.43
2023-04-19T06:56:54.489Z,75.80
2023-04-19T06:59:22.135Z,75.15
2023-04-19T07:01:49.884Z,74.79
2023-04-19T07:04:18.610Z,75.60
2023-04-19T07:06:50.817Z,75.09
2023-04-19T07:09:18.370Z,75.89
2023-04-19T07:11:47.532Z,75.94
2023-04-19T07:14:15.525Z,75.57
2023-04-19T07:16:43.847Z,74.58
2023-04-19T07:19:11.588Z,74.36
2023-04-19T07:21:39.669Z,72.72
2023-04-19T07:24:08.914Z,73.26
2023-04-19T07:26:36.495Z,73.89
2023-04-19T07:29:04.444Z,73.05
2023-04-19T07:31:31.993Z,73.39
2023-04-19T07:33:59.733Z,73.03
2023-04-19T07:36:27.724Z,73.27
2023-04-19T07:38:55.573Z,71.90
2023-04-19T07:41:24.556Z,71.13
2023-04-19T07:43:52.159Z,71.32
2023-04-19T07:46:20.051Z,71.95
2023-04-19T07:48:47.723Z,71.16
2023-04-19T07:51:17.255Z,71.03
2023-04-19T07:53:45.054Z,71.01
2023-04-19T07:56:13.260Z,70.33
2023-04-19T07:58:43.063Z,68.22
2023-04-19T08:01:11.692Z,68.02
2023-04-19T08:03:39.452Z,66.98
2023-04-19T08:06:08.296Z,67.12
2023-04-19T08:08:36.032Z,66.22
2023-04-19T08:11:04.122Z,65.32
2023-04-19T08:13:31.838Z,65.08
2023-04-19T08:18:31.897Z,64.51
2023-04-19T08:20:59.527Z,63.54
2023-04-19T08:23:37.827Z,63.06
2023-04-19T08:26:12.790Z,62.26
2023-04-19T08:28:40.457Z,61.15
2023-04-19T08:31:10.292Z,61.75
2023-04-19T08:33:37.847Z,62.36
2023-04-19T08:36:05.737Z,61.79
2023-04-19T08:38:33.364Z,61.28
2023-04-19T08:41:01.999Z,61.81
2023-04-19T08:43:33.502Z,60.77
2023-04-19T08:46:02.007Z,59.63
2023-04-19T08:48:32.341Z,60.04
2023-04-19T08:51:05.591Z,60.27
2023-04-19T08:53:35.476Z,59.70
2023-04-19T08:56:15.103Z,60.07
2023-04-19T09:01:31.116Z,58.96
2023-04-19T09:04:16.955Z,58.13
2023-04-19T09:06:51.278Z,59.30
2023-04-19T09:11:53.167Z,59.10
2023-04-19T09:14:22.133Z,60.78
2023-04-19T09:16:52.016Z,62.00
2023-04-19T09:19:24.933Z,62.21
2023-04-19T09:21:54.427Z,61.03
2023-04-19T09:27:11.851Z,60.82
2023-04-19T09:29:39.586Z,60.24
2023-04-19T09:32:07.263Z,60.21
2023-04-19T09:34:36.273Z,59.99
2023-04-19T09:37:21.244Z,58.84
2023-04-19T09:40:00.568Z,58.75
2023-04-19T09:43:02.667Z,56.23
2023-04-19T09:45:42.208Z,55.67
2023-04-19T09:48:10.528Z,56.56
2023-04-19T09:50:58.958Z,56.88
2023-04-19T09:53:29.749Z,58.26
2023-04-19T09:56:02.337Z,58.20
2023-04-19T09:58:46.271Z,58.55
2023-04-19T10:01:17.753Z,57.64
2023-04-19T10:03:48.801Z,59.20
2023-04-19T10:08:54.375Z,57.83
2023-04-19T10:11:23.087Z,57.17
2023-04-19T10:13:54.564Z,57.10
2023-04-19T10:16:22.470Z,57.51
2023-04-19T10:18:52.278Z,58.15
2023-04-19T10:21:21.563Z,58.45
2023-04-19T10:23:49.453Z,57.36
2023-04-19T10:26:17.115Z,57.71
2023-04-19T10:28:44.655Z,56.76
2023-04-19T10:31:13.978Z,58.26
2023-04-19T10:33:42.463Z,58.77
2023-04-19T10:36:11.651Z,59.19
2023-04-19T10:38:43.171Z,59.54
2023-04-19T10:41:17.117Z,59.86
2023-04-19T10:43:47.014Z,60.16
2023-04-19T10:46:17.301Z,60.48
2023-04-19T10:48:56.335Z,60.68
2023-04-19T10:51:27.746Z,60.56
2023-04-19T10:54:00.826Z,59.47
2023-04-19T10:57:11.763Z,59.02
2023-04-19T10:59:42.778Z,60.32
2023-04-19T11:02:28.741Z,60.10
2023-04-19T11:05:04.073Z,60.74
2023-04-19T11:07:43.383Z,60.73
2023-04-19T11:10:12.772Z,59.14
2023-04-19T11:12:44.798Z,59.32
2023-04-19T11:15:12.418Z,59.83
2023-04-19T11:17:40.719Z,59.95
2023-04-19T11:20:10.716Z,60.37
2023-04-19T11:22:39.536Z,60.74
2023-04-19T11:25:12.918Z,62.03
2023-04-19T11:27:41.161Z,61.75
2023-04-19T11:30:11.437Z,61.25
2023-04-19T11:32:39.946Z,62.53
2023-04-19T11:35:09.887Z,62.87
2023-04-19T11:37:39.125Z,64.58
2023-04-19T11:40:08.284Z,64.28
2023-04-19T11:42:37.343Z,64.11
2023-04-19T11:45:08.966Z,64.24
2023-04-19T11:47:49.032Z,64.88
2023-04-19T11:50:37.021Z,65.26
2023-04-19T11:53:12.697Z,66.14
2023-04-19T11:55:42.792Z,66.53
2023-04-19T11:58:24.336Z,67.64
2023-04-19T12:00:52.295Z,68.92
2023-04-19T12:03:25.721Z,70.25
2023-04-19T12:05:55.947Z,70.14
2023-04-19T12:08:33.982Z,71.81
2023-04-19T12:11:03.262Z,71.87
2023-04-19T12:13:32.996Z,72.64
2023-04-19T12:16:01.648Z,73.60
2023-04-19T12:18:29.428Z,73.21
2023-04-19T12:20:57.956Z,72.69
2023-04-19T12:23:27.008Z,73.41
2023-04-19T12:25:54.528Z,73.22
2023-04-19T12:28:23.692Z,73.72
2023-04-19T12:30:52.999Z,74.33
2023-04-19T12:33:21.679Z,75.41
2023-04-19T12:35:51.021Z,75.51
2023-04-19T12:38:18.562Z,76.20
2023-04-19T12:40:46.358Z,75.70
2023-04-19T12:43:14.015Z,77.11
2023-04-19T12:45:41.596Z,78.55
2023-04-19T12:48:10.528Z,79.15
2023-04-19T12:50:38.071Z,79.19
2023-04-19T12:53:06.797Z,80.46
2023-04-19T12:55:34.338Z,81.88
2023-04-19T12:58:01.886Z,82.45
2023-04-19T13:00:30.125Z,84.29
2023-04-19T13:02:57.810Z,84.56
2023-04-19T13:05:26.809Z,85.19
2023-04-19T13:07:54.374Z,85.63
2023-04-19T13:10:21.898Z,85.13
2023-04-19T13:12:49.430Z,84.50
2023-04-19T13:15:17.232Z,83.35
2023-04-19T13:17:44.904Z,83.41
2023-04-19T13:20:13.169Z,83.10
2023-04-19T13:22:42.087Z,82.45
2023-04-19T13:25:10.349Z,81.08
2023-04-19T13:27:37.981Z,80.33
2023-04-19T13:30:06.391Z,79.75
2023-04-19T13:32:34.056Z,77.81
2023-04-19T13:35:01.631Z,76.78
2023-04-19T13:37:29.644Z,75.38
2023-04-19T13:40:10.503Z,75.44
2023-04-19T13:42:42.771Z,75.45
2023-04-19T13:45:10.941Z,74.91
2023-04-19T13:47:38.545Z,74.32
2023-04-19T13:50:07.152Z,72.02
2023-04-19T13:52:34.668Z,71.58
2023-04-19T13:55:03.660Z,71.40
2023-04-19T13:57:31.308Z,71.56
2023-04-19T13:59:58.856Z,70.14
2023-04-19T14:02:26.632Z,70.29
2023-04-19T14:04:54.364Z,70.74
2023-04-19T14:07:21.943Z,71.94
2023-04-19T14:09:49.521Z,70.93
2023-04-19T14:12:18.520Z,72.75
2023-04-19T14:14:46.090Z,73.13
2023-04-19T14:17:13.614Z,72.40
2023-04-19T14:19:41.181Z,70.91
2023-04-19T14:22:08.763Z,69.87
2023-04-19T14:24:36.406Z,69.53
2023-04-19T14:27:11.061Z,69.06
2023-04-19T14:29:40.723Z,69.07
2023-04-19T14:32:24.500Z,68.84
2023-04-19T14:34:54.577Z,67.15
2023-04-19T14:37:23.350Z,64.88
2023-04-19T14:39:51.116Z,62.93
2023-04-19T14:42:20.800Z,62.34
2023-04-19T14:44:52.773Z,62.14
2023-04-19T14:47:20.755Z,62.39
2023-04-19T14:49:48.548Z,61.63
2023-04-19T14:52:16.451Z,61.50
2023-04-19T14:54:44.270Z,62.47
2023-04-19T14:57:12.013Z,57.23
2023-04-19T14:59:39.714Z,54.77
2023-04-19T15:02:10.513Z,53.80
2023-04-19T15:04:40.690Z,52.28
2023-04-19T15:07:08.893Z,50.50
2023-04-19T15:09:36.485Z,49.79
2023-04-19T15:12:04.384Z,49.17
2023-04-19T15:14:31.972Z,48.11
2023-04-19T15:16:59.597Z,47.80
2023-04-19T15:19:29.641Z,47.41
2023-04-19T15:21:57.379Z,48.36
2023-04-19T15:24:24.944Z,50.30
2023-04-19T15:26:52.524Z,50.78
2023-04-19T15:29:20.037Z,52.24
2023-04-19T15:31:47.745Z,54.10
2023-04-19T15:34:15.411Z,57.25
2023-04-19T15:36:44.781Z,58.17
2023-04-19T15:39:12.353Z,59.94
2023-04-19T15:41:39.913Z,61.32
2023-04-19T15:44:07.445Z,62.33
2023-04-19T15:46:35.097Z,62.55
2023-04-19T15:49:03.785Z,62.34
2023-04-19T15:51:31.606Z,62.96
2023-04-19T15:54:00.745Z,63.12
2023-04-19T15:56:28.344Z,65.47
2023-04-19T15:58:55.901Z,65.25
2023-04-19T16:01:23.518Z,65.79
2023-04-19T16:03:51.208Z,65.68
2023-04-19T16:06:18.865Z,65.73
2023-04-19T16:08:46.459Z,66.21
2023-04-19T16:11:15.478Z,66.81
2023-04-19T16:13:43.267Z,66.16
2023-04-19T16:16:10.905Z,67.01
2023-04-19T16:18:38.463Z,68.24
2023-04-19T16:21:06.462Z,65.50
2023-04-19T16:23:34.082Z,64.37
2023-04-19T16:26:01.770Z,59.66
2023-04-19T16:28:30.755Z,56.53
2023-04-19T16:30:58.356Z,57.85
2023-04-19T16:33:26.018Z,63.69
2023-04-19T16:35:53.650Z,65.97
2023-04-19T16:38:21.291Z,66.19
2023-04-19T16:40:50.099Z,64.76
2023-04-19T16:43:17.847Z,68.50
2023-04-19T16:45:46.811Z,69.87
2023-04-19T16:48:14.642Z,69.15
2023-04-19T16:50:42.334Z,62.67
2023-04-19T16:53:09.918Z,63.35
2023-04-19T16:55:37.707Z,65.45
2023-04-19T16:58:05.430Z,68.63
2023-04-19T17:00:33.087Z,68.77
2023-04-19T17:03:02.116Z,68.07
2023-04-19T17:05:32.001Z,68.66
2023-04-19T17:07:59.956Z,68.13
2023-04-19T17:10:28.254Z,66.93
2023-04-19T17:12:56.423Z,66.31
2023-04-19T17:15:24.082Z,65.54
2023-04-19T17:17:51.785Z,66.20
2023-04-19T17:20:21.088Z,66.61
2023-04-19T17:22:48.594Z,66.84
2023-04-19T17:25:16.351Z,66.66
2023-04-19T17:27:44.380Z,63.62
2023-04-19T17:34:24.577Z,67.53
2023-04-19T17:36:53.514Z,67.83
2023-04-19T17:39:21.102Z,66.31
2023-04-19T17:41:48.626Z,66.38
2023-04-19T17:44:16.240Z,63.32
2023-04-19T17:46:43.820Z,61.74
2023-04-19T17:49:12.680Z,62.36
2023-04-19T17:51:40.253Z,55.03
2023-04-19T17:54:10.212Z,56.51
2023-04-19T17:56:37.759Z,53.67
2023-04-19T17:59:05.344Z,50.64
2023-04-19T18:01:34.877Z,49.05
2023-04-19T18:04:02.730Z,49.13
2023-04-19T18:06:31.671Z,48.50
2023-04-19T18:08:59.576Z,47.86
2023-04-19T18:11:28.829Z,45.33
2023-04-19T18:13:56.698Z,45.92
2023-04-19T18:16:24.438Z,45.16
2023-04-19T18:18:52.132Z,44.07
2023-04-19T18:21:19.746Z,44.94
2023-04-19T18:23:47.508Z,43.62
2023-04-19T18:26:15.140Z,44.75
2023-04-19T18:28:44.155Z,46.07
2023-04-19T18:31:11.737Z,46.60
2023-04-19T18:33:39.279Z,46.02
2023-04-19T18:36:07.129Z,47.23
2023-04-19T18:38:34.776Z,47.11
2023-04-19T18:41:02.386Z,46.36
2023-04-19T18:43:30.972Z,45.10
2023-04-19T18:46:01.317Z,46.28
2023-04-19T18:48:29.836Z,46.13
2023-04-19T18:50:57.795Z,46.47
2023-04-19T18:53:26.836Z,46.08
2023-04-19T18:55:57.393Z,46.84
2023-04-19T18:58:25.102Z,46.80
2023-04-19T19:00:52.962Z,47.83
2023-04-19T19:03:48.347Z,48.33
2023-04-19T19:06:11.511Z,48.16
2023-04-19T19:08:39.449Z,47.97
2023-04-19T19:11:29.212Z,47.18
2023-04-19T19:13:54.730Z,48.12
2023-04-19T19:16:22.493Z,48.40
2023-04-19T19:18:51.531Z,47.72
2023-04-19T19:21:19.648Z,48.24
2023-04-19T19:23:47.422Z,47.48
2023-04-19T19:26:15.178Z,48.27
2023-04-19T19:28:43.188Z,49.02
2023-04-19T19:31:11.049Z,49.71
2023-04-19T19:33:40.564Z,50.52
2023-04-19T19:36:09.850Z,50.85
2023-04-19T19:38:37.673Z,51.41
2023-04-19T19:43:36.942Z,51.43
2023-04-19T19:46:04.517Z,51.89
2023-04-19T19:48:37.130Z,51.44
2023-04-19T19:51:41.720Z,51.16
2023-04-19T19:53:57.582Z,50.53
2023-04-19T19:56:25.262Z,50.95
2023-04-19T19:58:52.819Z,50.18
2023-04-19T20:01:22.723Z,52.35
2023-04-19T20:03:51.033Z,52.57
2023-04-19T20:07:13.596Z,51.66
2023-04-19T20:09:07.798Z,51.28
2023-04-19T20:11:35.433Z,51.69
2023-04-19T20:14:03.092Z,52.33
2023-04-19T20:16:30.752Z,53.86
2023-04-19T20:18:59.432Z,54.04
2023-04-19T20:21:27.087Z,55.36
2023-04-19T20:23:54.892Z,55.73
2023-04-19T20:26:24.046Z,53.62
2023-04-19T20:28:52.558Z,54.88
2023-04-19T20:31:21.445Z,57.14
2023-04-19T20:33:52.400Z,57.14
2023-04-19T20:36:22.513Z,57.26
2023-04-19T20:38:50.199Z,56.92
2023-04-19T20:41:19.081Z,57.08
2023-04-19T20:43:48.118Z,58.64
2023-04-19T20:46:16.710Z,59.94
2023-04-19T20:48:44.271Z,60.16
2023-04-19T20:51:12.683Z,59.36
2023-04-19T20:53:40.483Z,61.66
2023-04-19T20:56:08.022Z,62.02
2023-04-19T20:58:37.685Z,62.31
2023-04-19T21:01:06.737Z,63.09
2023-04-19T21:03:34.371Z,63.83
2023-04-19T21:06:02.181Z,65.14
2023-04-19T21:08:29.772Z,65.55
2023-04-19T21:10:57.335Z,65.92
2023-04-19T21:13:25.043Z,66.14
2023-04-19T21:15:52.714Z,65.99
2023-04-19T21:18:22.727Z,66.92
2023-04-19T21:20:50.371Z,66.91
2023-04-19T21:23:17.956Z,68.50
2023-04-19T21:25:45.630Z,69.61
2023-04-19T21:28:13.236Z,71.19
2023-04-19T21:30:43.210Z,70.95
2023-04-19T21:33:10.854Z,70.73
2023-04-19T21:35:39.922Z,70.71
2023-04-19T21:38:07.595Z,69.84
2023-04-19T21:40:35.136Z,70.76
2023-04-19T21:43:02.777Z,71.11
2023-04-19T21:45:30.413Z,71.64
2023-04-19T21:47:57.972Z,72.01
2023-04-19T21:50:25.759Z,72.26
2023-04-19T21:52:54.663Z,73.01
2023-04-19T21:55:22.448Z,74.33
2023-04-19T21:57:50.154Z,74.22
2023-04-19T22:00:18.171Z,75.50
2023-04-19T22:02:45.826Z,74.92
2023-04-19T22:05:13.701Z,75.64
2023-04-19T22:07:42.009Z,75.40
2023-04-19T22:10:12.157Z,76.83
2023-04-19T22:12:51.308Z,77.44
2023-04-19T22:15:25.822Z,77.03
2023-04-19T22:17:53.514Z,77.15
2023-04-19T22:20:21.216Z,76.71
2023-04-19T22:22:49.056Z,77.91
2023-04-19T22:25:18.291Z,77.87
2023-04-19T22:27:48.654Z,77.72
2023-04-19T22:30:16.894Z,77.79
2023-04-19T22:32:44.692Z,78.12
2023-04-19T22:35:13.059Z,79.23
2023-04-19T22:37:40.722Z,79.45
2023-04-19T22:40:09.612Z,79.41
2023-04-19T22:42:38.523Z,79.56
2023-04-19T22:45:07.409Z,78.75
2023-04-19T22:47:35.101Z,79.52
2023-04-19T22:50:02.673Z,80.13
2023-04-19T22:52:30.584Z,80.46
2023-04-19T22:54:58.198Z,79.40
2023-04-19T22:57:25.870Z,79.45
2023-04-19T22:59:55.360Z,78.23
2023-04-19T23:02:26.136Z,78.31
2023-04-19T23:04:54.273Z,80.36
2023-04-19T23:07:22.740Z,80.86
2023-04-19T23:09:51.676Z,80.79
2023-04-19T23:12:19.344Z,80.60
2023-04-19T23:14:48.278Z,80.91
2023-04-19T23:17:17.455Z,81.12
2023-04-19T23:19:47.259Z,80.88
2023-04-19T23:22:14.940Z,81.53
2023-04-19T23:24:42.736Z,81.56
2023-04-19T23:27:10.337Z,81.86
2023-04-19T23:29:37.885Z,83.21
2023-04-19T23:32:05.766Z,82.79
2023-04-19T23:34:34.724Z,83.80
2023-04-19T23:37:02.381Z,83.76
2023-04-19T23:39:29.998Z,84.27
2023-04-19T23:41:57.942Z,84.60
2023-04-19T23:44:27.729Z,84.14
2023-04-19T23:46:55.497Z,85.26
2023-04-19T23:49:23.391Z,85.70
2023-04-19T23:51:52.609Z,86.20
2023-04-19T23:54:22.155Z,86.14
2023-04-19T23:56:50.575Z,86.74
2023-04-19T23:59:18.934Z,86.53
